Terminal Aerodrome Forecast
Issued by NWS Cleveland, OH

Home | Current Version | Previous Version | Text Only | Print | Product List | Glossary On
Versions: 1 2 3 4 5 6 7 8 9 10 11 12 13 14 15 16 17 18 19 20
000
FTUS41 KCLE 301800 AAA
TAFTOL
TAF AMD
KTOL 301807Z 3018/0118 36006KT P6SM BKN020
     FM010500 01004KT 3SM BR SCT004
     FM010900 01002KT 1/2SM FG VV003
     FM011500 05003KT P6SM SCT010=

USA.gov is the U.S. government's official web portal to all federal, state and local government web resources and services.